Friday, October 24, 2014
16:13 UTC
  |  Log In   |  Register Free
Airport Search:

Henry Post Aaf (Fort Sill) Airport
(KFSI)

Henry Post Aaf (Fort Sill) Airport Diagram
No Airport Diagram Available

FAA data valid effective September 18, 2014 - November 13, 2014 (unless otherwise noted).

 
 
 
 
 
 
 
 
 
 
 
 
 
 

Current Aviation Weather for Henry Post Aaf (Fort Sill) Airport (KFSI)

The most recent METAR observation for KFSI was updated at: 1610
METAR Summary (Translated METAR)
KFSI
241558Z AUTO 18008KT 10SM CLR 21/16 A3011 RMK AO2 SLP191 T02140159
KLAW
241553Z 18008KT 10SM CLR 22/16 A3012 RMK AO2 SLP193 T02170156
(5.0 nm SW from KFSI)
KDUC
241555Z AUTO 00000KT 10SM CLR 21/16 A3014 RMK AO2
(24.4 nm SE from KFSI)
TAF Summary (Translated TAF)
KFSI
2413/2519 19007KT 9999 FEW040 QNH3003INS BECMG 2418/2419 21010G15KT 9999 SKC QNH3001INS BECMG 2423/2424 19009KT 9999 FEW040 QNH3001INS TX30/2517Z TN14/2413Z
KLAW
(5.0 nm SW from KFSI)
241120Z 2412/2512 15007KT 6SM BR SCT250 FM241500 20011KT P6SM SCT250 FM250000 15006KT P6SM SCT250
  Airport Weather Conditions for KFSI

 Current Weather at FSI
65° F
Fair
South winds at 6.9 mph
FSI NOAA Radar

Pressure: 30.11 in
Humidity: 80%
Wind: South at 6.9 MPH (6 KT)
Dew Point: 59.0°F
Visibility: 10.00 mi


Airport Weather Forecast for KFSI

Translated METAR and TAF for KFSI
Translated METAR for KFSI (1608 UTC 24 October 2014)
found at http://aviationweather.gov/adds/metars/
 
METAR text: KFSI 241558Z AUTO 18008KT 10SM CLR 21/16 A3011 RMK AO2 SLP191 T02140159
Conditions at: KFSI (FORT SILL , OK, US) observed 1558 UTC 24 October 2014
Temperature: 21.4°C (71°F)
Dewpoint: 15.9°C (61°F) [RH = 71%]
Pressure (altimeter): 30.11 inches Hg (1019.7 mb)
[Sea-level pressure: 1019.1 mb]
Winds: from the S (180 degrees) at 9 MPH (8 knots; 4.2 m/s)
Visibility: 10 or more miles (16+ km)
Ceiling: at least 12,000 feet AGL
Clouds: sky clear below 12,000 feet AGL
Weather: automated observation with no human augmentation;
there may or may not be significant weather present at this time
Translated TAF for KFSI
Forecast for: KFSI (FORT SILL , OK, US)
TAF Text: TAF KFSI 2413/2519 19007KT 9999 FEW040 QNH3003INS
Forecast period: 1300 to 1800 UTC 24 October 2014
Forecast type: FROM: standard forecast or significant change
Winds: from the S (190 degrees) at 8 MPH (7 knots; 3.6 m/s)
Visibility: 6 or more miles (10+ km)
Clouds: few clouds at 4000 feet AGL
Weather: no significant weather forecast for this period
TAF Text: BECMG 2418/2419 21010G15KT 9999 SKC QNH3001INS
Forecast period: 1800 to 2300 UTC 24 October 2014
Forecast type: BECOMING: Conditions expected to become as follows by 1900 UTC 24 October 2014
Winds: from the SSW (210 degrees) at 12 MPH (10 knots; 5.2 m/s)
gusting to 17 MPH (15 knots; 7.8 m/s)
Visibility: 6 or more miles (10+ km)
Clouds: clear skies
Weather: no significant weather forecast for this period
TAF Text: BECMG 2423/2424 19009KT 9999 FEW040 QNH3001INS TX30/2517Z TN14/2413Z
Forecast period: 2300 UTC 24 October 2014 to 1900 UTC 25 October 2014
Forecast type: BECOMING: Conditions expected to become as follows by 0000 UTC 25 October 2014
Winds: from the S (190 degrees) at 10 MPH (9 knots; 4.7 m/s)
Visibility: 6 or more miles (10+ km)
Clouds: few clouds at 4000 feet AGL
Weather: no significant weather forecast for this period

Find All Airport Services Find A Hotel Find A Rental Car Find A Golf Course Find A Restaurant $100 Hamburger



FBO's on the Field
FBO Company Facility Photos Services Transportation Aviation Fuel Prices: Prices include tax
Catering Weather Repair Courtesy Rental Type 100LL JetA JetA+ MOGAS 8087
 
Add another FBO Facility Photos Catering Weather Repair Courtesy Rental Type 100LL JetA JetA+ MOGAS 8087
Services Transportation Aviation Fuel Prices: Prices include tax
There are no FBO's currently reporting fuel at FSI. List your FBO now


model-print
model-print
model-print
model-print